sensor_id;sensor_type;location;lat;lon;timestamp;P1;durP1;ratioP1;P2;durP2;ratioP2
13061;SDS011;6597;52.218;9.882;2022-08-11T00:00:59;8.07;;;3.43;;
13061;SDS011;6597;52.218;9.882;2022-08-11T00:03:31;9.60;;;3.13;;
13061;SDS011;6597;52.218;9.882;2022-08-11T00:05:59;4.43;;;2.50;;
13061;SDS011;6597;52.218;9.882;2022-08-11T00:08:28;3.67;;;2.20;;
13061;SDS011;6597;52.218;9.882;2022-08-11T00:10:57;4.43;;;2.73;;
13061;SDS011;6597;52.218;9.882;2022-08-11T00:13:33;7.00;;;2.70;;
13061;SDS011;6597;52.218;9.882;2022-08-11T00:16:02;5.37;;;2.20;;
13061;SDS011;6597;52.218;9.882;2022-08-11T00:18:37;6.57;;;2.47;;
13061;SDS011;6597;52.218;9.882;2022-08-11T00:21:05;4.80;;;2.63;;
13061;SDS011;6597;52.218;9.882;2022-08-11T00:23:33;5.33;;;2.60;;
13061;SDS011;6597;52.218;9.882;2022-08-11T00:26:06;4.13;;;2.40;;
13061;SDS011;6597;52.218;9.882;2022-08-11T00:28:34;5.17;;;2.67;;
13061;SDS011;6597;52.218;9.882;2022-08-11T00:31:02;3.20;;;1.93;;
13061;SDS011;6597;52.218;9.882;2022-08-11T00:33:33;2.47;;;2.03;;
13061;SDS011;6597;52.218;9.882;2022-08-11T00:36:02;3.80;;;2.17;;
13061;SDS011;6597;52.218;9.882;2022-08-11T00:38:32;3.17;;;2.03;;
13061;SDS011;6597;52.218;9.882;2022-08-11T00:41:04;6.93;;;2.37;;
13061;SDS011;6597;52.218;9.882;2022-08-11T00:43:46;3.80;;;2.03;;
13061;SDS011;6597;52.218;9.882;2022-08-11T00:46:27;4.60;;;2.60;;
13061;SDS011;6597;52.218;9.882;2022-08-11T00:49:07;3.07;;;1.90;;
13061;SDS011;6597;52.218;9.882;2022-08-11T00:51:53;5.13;;;1.60;;
13061;SDS011;6597;52.218;9.882;2022-08-11T00:54:38;3.23;;;1.93;;
13061;SDS011;6597;52.218;9.882;2022-08-11T00:57:30;2.53;;;2.07;;
13061;SDS011;6597;52.218;9.882;2022-08-11T01:00:22;3.47;;;2.20;;
13061;SDS011;6597;52.218;9.882;2022-08-11T01:02:59;2.70;;;2.20;;
13061;SDS011;6597;52.218;9.882;2022-08-11T01:08:56;5.13;;;2.50;;
13061;SDS011;6597;52.218;9.882;2022-08-11T01:18:15;2.40;;;2.07;;
13061;SDS011;6597;52.218;9.882;2022-08-11T01:21:08;3.17;;;2.07;;
13061;SDS011;6597;52.218;9.882;2022-08-11T01:36:22;4.37;;;2.50;;
13061;SDS011;6597;52.218;9.882;2022-08-11T01:39:29;3.33;;;2.30;;
13061;SDS011;6597;52.218;9.882;2022-08-11T01:45:45;2.83;;;1.90;;
13061;SDS011;6597;52.218;9.882;2022-08-11T01:48:21;2.37;;;1.73;;
13061;SDS011;6597;52.218;9.882;2022-08-11T01:51:04;3.07;;;1.97;;
13061;SDS011;6597;52.218;9.882;2022-08-11T01:53:45;3.40;;;2.23;;
13061;SDS011;6597;52.218;9.882;2022-08-11T01:56:31;2.27;;;2.03;;
13061;SDS011;6597;52.218;9.882;2022-08-11T01:59:09;3.53;;;2.60;;
13061;SDS011;6597;52.218;9.882;2022-08-11T02:01:44;3.57;;;2.40;;
13061;SDS011;6597;52.218;9.882;2022-08-11T02:04:24;5.80;;;2.97;;
13061;SDS011;6597;52.218;9.882;2022-08-11T02:07:00;3.53;;;2.93;;
13061;SDS011;6597;52.218;9.882;2022-08-11T02:09:40;3.63;;;2.53;;
13061;SDS011;6597;52.218;9.882;2022-08-11T02:12:20;2.77;;;2.50;;
13061;SDS011;6597;52.218;9.882;2022-08-11T02:15:02;3.80;;;2.70;;
13061;SDS011;6597;52.218;9.882;2022-08-11T02:17:40;3.13;;;2.30;;
13061;SDS011;6597;52.218;9.882;2022-08-11T02:20:15;5.07;;;2.70;;
13061;SDS011;6597;52.218;9.882;2022-08-11T02:23:11;3.90;;;2.57;;
13061;SDS011;6597;52.218;9.882;2022-08-11T02:26:06;6.13;;;2.60;;
13061;SDS011;6597;52.218;9.882;2022-08-11T02:28:38;6.73;;;2.80;;
13061;SDS011;6597;52.218;9.882;2022-08-11T02:31:12;4.73;;;2.87;;
13061;SDS011;6597;52.218;9.882;2022-08-11T02:34:04;3.30;;;2.50;;
13061;SDS011;6597;52.218;9.882;2022-08-11T02:36:41;6.10;;;2.80;;
13061;SDS011;6597;52.218;9.882;2022-08-11T02:39:14;4.33;;;2.87;;
13061;SDS011;6597;52.218;9.882;2022-08-11T02:41:49;4.87;;;2.67;;
13061;SDS011;6597;52.218;9.882;2022-08-11T02:44:37;4.77;;;2.80;;
13061;SDS011;6597;52.218;9.882;2022-08-11T02:47:16;7.43;;;2.57;;
13061;SDS011;6597;52.218;9.882;2022-08-11T02:49:55;3.63;;;2.73;;
13061;SDS011;6597;52.218;9.882;2022-08-11T02:52:29;5.07;;;3.00;;
13061;SDS011;6597;52.218;9.882;2022-08-11T02:55:12;5.13;;;2.80;;
13061;SDS011;6597;52.218;9.882;2022-08-11T02:57:48;5.63;;;2.93;;
13061;SDS011;6597;52.218;9.882;2022-08-11T03:00:20;4.33;;;2.90;;
13061;SDS011;6597;52.218;9.882;2022-08-11T03:02:59;3.40;;;2.60;;
13061;SDS011;6597;52.218;9.882;2022-08-11T03:05:38;3.67;;;2.53;;
13061;SDS011;6597;52.218;9.882;2022-08-11T03:08:28;3.87;;;2.70;;
13061;SDS011;6597;52.218;9.882;2022-08-11T03:11:14;4.37;;;2.63;;
13061;SDS011;6597;52.218;9.882;2022-08-11T03:14:11;5.53;;;2.53;;
13061;SDS011;6597;52.218;9.882;2022-08-11T03:17:03;6.33;;;2.90;;
13061;SDS011;6597;52.218;9.882;2022-08-11T03:19:45;4.17;;;2.47;;
13061;SDS011;6597;52.218;9.882;2022-08-11T03:22:32;4.47;;;2.60;;
13061;SDS011;6597;52.218;9.882;2022-08-11T03:25:07;4.80;;;2.90;;
13061;SDS011;6597;52.218;9.882;2022-08-11T03:27:45;4.07;;;2.73;;
13061;SDS011;6597;52.218;9.882;2022-08-11T03:30:20;4.20;;;2.80;;
13061;SDS011;6597;52.218;9.882;2022-08-11T03:32:55;3.57;;;2.50;;
13061;SDS011;6597;52.218;9.882;2022-08-11T03:35:49;3.60;;;2.33;;
13061;SDS011;6597;52.218;9.882;2022-08-11T03:38:31;2.80;;;2.50;;
13061;SDS011;6597;52.218;9.882;2022-08-11T03:41:15;3.83;;;2.60;;
13061;SDS011;6597;52.218;9.882;2022-08-11T03:44:20;3.27;;;2.50;;
13061;SDS011;6597;52.218;9.882;2022-08-11T03:47:11;5.37;;;2.70;;
13061;SDS011;6597;52.218;9.882;2022-08-11T03:49:55;3.67;;;2.37;;
13061;SDS011;6597;52.218;9.882;2022-08-11T03:52:33;6.10;;;2.63;;
13061;SDS011;6597;52.218;9.882;2022-08-11T03:55:17;5.17;;;2.63;;
13061;SDS011;6597;52.218;9.882;2022-08-11T03:58:12;4.37;;;2.57;;
13061;SDS011;6597;52.218;9.882;2022-08-11T04:04:21;4.07;;;2.60;;
13061;SDS011;6597;52.218;9.882;2022-08-11T04:07:22;4.23;;;2.87;;
13061;SDS011;6597;52.218;9.882;2022-08-11T04:16:46;5.03;;;2.63;;
13061;SDS011;6597;52.218;9.882;2022-08-11T04:22:37;4.20;;;2.90;;
13061;SDS011;6597;52.218;9.882;2022-08-11T04:25:28;8.00;;;2.80;;
13061;SDS011;6597;52.218;9.882;2022-08-11T04:28:21;3.13;;;2.60;;
13061;SDS011;6597;52.218;9.882;2022-08-11T04:31:09;6.53;;;3.07;;
13061;SDS011;6597;52.218;9.882;2022-08-11T04:34:03;4.60;;;3.27;;
13061;SDS011;6597;52.218;9.882;2022-08-11T04:46:07;6.47;;;3.10;;
13061;SDS011;6597;52.218;9.882;2022-08-11T04:58:43;4.80;;;2.80;;
13061;SDS011;6597;52.218;9.882;2022-08-11T05:05:17;9.00;;;2.70;;
13061;SDS011;6597;52.218;9.882;2022-08-11T05:08:19;4.30;;;3.00;;
13061;SDS011;6597;52.218;9.882;2022-08-11T05:11:20;4.47;;;2.70;;
13061;SDS011;6597;52.218;9.882;2022-08-11T05:14:06;3.90;;;2.87;;
13061;SDS011;6597;52.218;9.882;2022-08-11T05:17:09;4.73;;;2.77;;
13061;SDS011;6597;52.218;9.882;2022-08-11T05:19:57;4.83;;;2.60;;
13061;SDS011;6597;52.218;9.882;2022-08-11T05:22:43;10.50;;;3.07;;
13061;SDS011;6597;52.218;9.882;2022-08-11T05:25:31;3.63;;;2.80;;
13061;SDS011;6597;52.218;9.882;2022-08-11T05:28:19;4.10;;;2.77;;
13061;SDS011;6597;52.218;9.882;2022-08-11T05:31:14;4.03;;;3.03;;
13061;SDS011;6597;52.218;9.882;2022-08-11T05:34:02;5.53;;;3.00;;
13061;SDS011;6597;52.218;9.882;2022-08-11T05:36:56;4.00;;;2.83;;
13061;SDS011;6597;52.218;9.882;2022-08-11T05:39:30;5.37;;;2.80;;
13061;SDS011;6597;52.218;9.882;2022-08-11T05:42:17;4.70;;;3.00;;
13061;SDS011;6597;52.218;9.882;2022-08-11T05:45:09;4.00;;;2.60;;
13061;SDS011;6597;52.218;9.882;2022-08-11T05:47:55;5.20;;;3.10;;
13061;SDS011;6597;52.218;9.882;2022-08-11T05:50:40;5.60;;;2.70;;
13061;SDS011;6597;52.218;9.882;2022-08-11T05:53:33;4.33;;;2.93;;
13061;SDS011;6597;52.218;9.882;2022-08-11T05:56:18;4.27;;;2.97;;
13061;SDS011;6597;52.218;9.882;2022-08-11T05:58:45;8.83;;;3.07;;
13061;SDS011;6597;52.218;9.882;2022-08-11T06:01:20;6.10;;;2.73;;
13061;SDS011;6597;52.218;9.882;2022-08-11T06:03:49;3.97;;;2.70;;
13061;SDS011;6597;52.218;9.882;2022-08-11T06:06:35;6.20;;;3.13;;
13061;SDS011;6597;52.218;9.882;2022-08-11T06:09:06;8.00;;;3.07;;
13061;SDS011;6597;52.218;9.882;2022-08-11T06:11:36;4.67;;;2.93;;
13061;SDS011;6597;52.218;9.882;2022-08-11T06:14:05;4.10;;;2.80;;
13061;SDS011;6597;52.218;9.882;2022-08-11T06:16:32;4.00;;;2.90;;
13061;SDS011;6597;52.218;9.882;2022-08-11T06:19:00;6.70;;;3.20;;
13061;SDS011;6597;52.218;9.882;2022-08-11T06:21:27;5.23;;;3.10;;
13061;SDS011;6597;52.218;9.882;2022-08-11T06:23:54;4.63;;;3.23;;
13061;SDS011;6597;52.218;9.882;2022-08-11T06:26:22;4.73;;;3.13;;
13061;SDS011;6597;52.218;9.882;2022-08-11T06:28:49;5.83;;;3.23;;
13061;SDS011;6597;52.218;9.882;2022-08-11T06:31:18;9.27;;;3.20;;
13061;SDS011;6597;52.218;9.882;2022-08-11T06:33:52;9.77;;;3.23;;
13061;SDS011;6597;52.218;9.882;2022-08-11T06:36:26;13.17;;;3.43;;
13061;SDS011;6597;52.218;9.882;2022-08-11T06:39:01;11.60;;;3.37;;
13061;SDS011;6597;52.218;9.882;2022-08-11T06:41:48;12.90;;;3.92;;
13061;SDS011;6597;52.218;9.882;2022-08-11T06:44:21;13.65;;;3.78;;
13061;SDS011;6597;52.218;9.882;2022-08-11T06:46:53;14.88;;;4.47;;
13061;SDS011;6597;52.218;9.882;2022-08-11T06:49:31;26.20;;;4.50;;
13061;SDS011;6597;52.218;9.882;2022-08-11T06:52:17;19.88;;;3.97;;
13061;SDS011;6597;52.218;9.882;2022-08-11T06:54:48;20.80;;;4.97;;
13061;SDS011;6597;52.218;9.882;2022-08-11T06:57:20;21.88;;;4.03;;
13061;SDS011;6597;52.218;9.882;2022-08-11T07:00:05;21.33;;;4.45;;
13061;SDS011;6597;52.218;9.882;2022-08-11T07:02:51;12.57;;;4.05;;
13061;SDS011;6597;52.218;9.882;2022-08-11T07:05:26;13.75;;;3.22;;
13061;SDS011;6597;52.218;9.882;2022-08-11T07:08:13;13.10;;;3.58;;
13061;SDS011;6597;52.218;9.882;2022-08-11T07:14:44;6.82;;;2.88;;
13061;SDS011;6597;52.218;9.882;2022-08-11T07:17:34;7.07;;;2.65;;
13061;SDS011;6597;52.218;9.882;2022-08-11T07:20:07;11.57;;;2.35;;
13061;SDS011;6597;52.218;9.882;2022-08-11T07:23:02;8.98;;;2.65;;
13061;SDS011;6597;52.218;9.882;2022-08-11T07:25:51;3.50;;;2.38;;
13061;SDS011;6597;52.218;9.882;2022-08-11T07:28:38;6.57;;;2.33;;
13061;SDS011;6597;52.218;9.882;2022-08-11T07:31:25;10.57;;;2.60;;
13061;SDS011;6597;52.218;9.882;2022-08-11T07:34:00;5.50;;;2.70;;
13061;SDS011;6597;52.218;9.882;2022-08-11T07:36:36;5.28;;;2.33;;
13061;SDS011;6597;52.218;9.882;2022-08-11T07:39:06;3.83;;;2.60;;
13061;SDS011;6597;52.218;9.882;2022-08-11T07:41:37;9.57;;;2.50;;
13061;SDS011;6597;52.218;9.882;2022-08-11T07:44:04;3.95;;;2.25;;
13061;SDS011;6597;52.218;9.882;2022-08-11T07:46:38;3.97;;;2.58;;
13061;SDS011;6597;52.218;9.882;2022-08-11T07:49:25;5.18;;;2.15;;
13061;SDS011;6597;52.218;9.882;2022-08-11T07:52:10;4.15;;;2.45;;
13061;SDS011;6597;52.218;9.882;2022-08-11T07:54:54;4.70;;;2.22;;
13061;SDS011;6597;52.218;9.882;2022-08-11T07:57:23;4.57;;;2.20;;
13061;SDS011;6597;52.218;9.882;2022-08-11T08:00:08;4.78;;;2.53;;
13061;SDS011;6597;52.218;9.882;2022-08-11T08:02:54;5.05;;;2.42;;
13061;SDS011;6597;52.218;9.882;2022-08-11T08:05:40;5.22;;;2.80;;
13061;SDS011;6597;52.218;9.882;2022-08-11T08:08:25;12.02;;;3.47;;
13061;SDS011;6597;52.218;9.882;2022-08-11T08:11:09;18.35;;;4.85;;
13061;SDS011;6597;52.218;9.882;2022-08-11T08:13:54;14.23;;;3.42;;
13061;SDS011;6597;52.218;9.882;2022-08-11T08:16:38;22.23;;;3.67;;
13061;SDS011;6597;52.218;9.882;2022-08-11T08:19:24;11.38;;;3.50;;
13061;SDS011;6597;52.218;9.882;2022-08-11T08:21:52;6.60;;;3.05;;
13061;SDS011;6597;52.218;9.882;2022-08-11T08:24:20;3.15;;;2.63;;
13061;SDS011;6597;52.218;9.882;2022-08-11T08:26:47;6.95;;;3.00;;
13061;SDS011;6597;52.218;9.882;2022-08-11T08:29:24;4.70;;;2.90;;
13061;SDS011;6597;52.218;9.882;2022-08-11T08:32:09;9.55;;;3.03;;
13061;SDS011;6597;52.218;9.882;2022-08-11T08:34:38;6.20;;;3.58;;
13061;SDS011;6597;52.218;9.882;2022-08-11T08:37:05;5.00;;;2.70;;
13061;SDS011;6597;52.218;9.882;2022-08-11T08:39:32;6.45;;;2.55;;
13061;SDS011;6597;52.218;9.882;2022-08-11T08:42:03;10.57;;;2.90;;
13061;SDS011;6597;52.218;9.882;2022-08-11T08:44:35;7.72;;;3.08;;
13061;SDS011;6597;52.218;9.882;2022-08-11T08:47:07;5.07;;;3.05;;
13061;SDS011;6597;52.218;9.882;2022-08-11T08:49:40;22.95;;;3.65;;
13061;SDS011;6597;52.218;9.882;2022-08-11T08:52:13;6.35;;;3.10;;
13061;SDS011;6597;52.218;9.882;2022-08-11T08:54:44;7.25;;;2.63;;
13061;SDS011;6597;52.218;9.882;2022-08-11T08:57:13;6.05;;;2.70;;
13061;SDS011;6597;52.218;9.882;2022-08-11T08:59:44;4.10;;;2.50;;
13061;SDS011;6597;52.218;9.882;2022-08-11T09:02:13;3.13;;;2.70;;
13061;SDS011;6597;52.218;9.882;2022-08-11T09:04:42;5.95;;;2.10;;
13061;SDS011;6597;52.218;9.882;2022-08-11T09:07:11;2.50;;;2.20;;
13061;SDS011;6597;52.218;9.882;2022-08-11T09:09:40;5.40;;;2.55;;
13061;SDS011;6597;52.218;9.882;2022-08-11T09:12:08;4.07;;;2.08;;
13061;SDS011;6597;52.218;9.882;2022-08-11T09:14:38;3.25;;;2.33;;
13061;SDS011;6597;52.218;9.882;2022-08-11T09:17:23;4.13;;;2.45;;
13061;SDS011;6597;52.218;9.882;2022-08-11T09:19:54;3.70;;;2.13;;
13061;SDS011;6597;52.218;9.882;2022-08-11T09:22:24;6.32;;;2.63;;
13061;SDS011;6597;52.218;9.882;2022-08-11T09:25:09;2.72;;;2.15;;
13061;SDS011;6597;52.218;9.882;2022-08-11T09:27:54;4.25;;;2.60;;
13061;SDS011;6597;52.218;9.882;2022-08-11T09:30:22;4.65;;;2.58;;
13061;SDS011;6597;52.218;9.882;2022-08-11T09:32:50;4.85;;;2.72;;
13061;SDS011;6597;52.218;9.882;2022-08-11T09:35:23;4.50;;;2.40;;
13061;SDS011;6597;52.218;9.882;2022-08-11T09:37:51;4.82;;;2.40;;
13061;SDS011;6597;52.218;9.882;2022-08-11T09:40:38;10.43;;;2.33;;
13061;SDS011;6597;52.218;9.882;2022-08-11T09:43:09;4.15;;;2.70;;
13061;SDS011;6597;52.218;9.882;2022-08-11T09:45:54;5.25;;;2.03;;
13061;SDS011;6597;52.218;9.882;2022-08-11T09:48:23;2.50;;;2.15;;
13061;SDS011;6597;52.218;9.882;2022-08-11T09:50:53;3.63;;;2.35;;
13061;SDS011;6597;52.218;9.882;2022-08-11T09:53:23;3.60;;;2.63;;
13061;SDS011;6597;52.218;9.882;2022-08-11T09:55:51;3.78;;;2.28;;
13061;SDS011;6597;52.218;9.882;2022-08-11T09:58:19;3.05;;;2.28;;
13061;SDS011;6597;52.218;9.882;2022-08-11T10:00:47;3.72;;;2.20;;
13061;SDS011;6597;52.218;9.882;2022-08-11T10:03:16;4.47;;;2.42;;
13061;SDS011;6597;52.218;9.882;2022-08-11T10:05:46;3.50;;;2.65;;
13061;SDS011;6597;52.218;9.882;2022-08-11T10:08:33;2.60;;;2.20;;
13061;SDS011;6597;52.218;9.882;2022-08-11T10:11:02;8.35;;;2.55;;
13061;SDS011;6597;52.218;9.882;2022-08-11T10:13:32;4.03;;;2.20;;
13061;SDS011;6597;52.218;9.882;2022-08-11T10:16:21;3.58;;;2.30;;
13061;SDS011;6597;52.218;9.882;2022-08-11T10:18:50;5.00;;;2.30;;
13061;SDS011;6597;52.218;9.882;2022-08-11T10:21:24;6.47;;;2.30;;
13061;SDS011;6597;52.218;9.882;2022-08-11T10:23:56;3.22;;;2.20;;
13061;SDS011;6597;52.218;9.882;2022-08-11T10:26:43;5.05;;;2.38;;
13061;SDS011;6597;52.218;9.882;2022-08-11T10:29:20;3.25;;;2.55;;
13061;SDS011;6597;52.218;9.882;2022-08-11T10:32:05;2.55;;;2.10;;
13061;SDS011;6597;52.218;9.882;2022-08-11T10:34:51;2.67;;;2.30;;
13061;SDS011;6597;52.218;9.882;2022-08-11T10:37:19;4.00;;;2.10;;
13061;SDS011;6597;52.218;9.882;2022-08-11T10:39:48;4.03;;;2.10;;
13061;SDS011;6597;52.218;9.882;2022-08-11T10:42:16;3.53;;;2.15;;
13061;SDS011;6597;52.218;9.882;2022-08-11T10:45:02;9.73;;;2.15;;
13061;SDS011;6597;52.218;9.882;2022-08-11T10:47:52;4.45;;;2.30;;
13061;SDS011;6597;52.218;9.882;2022-08-11T10:50:19;2.97;;;2.30;;
13061;SDS011;6597;52.218;9.882;2022-08-11T10:53:04;3.72;;;2.40;;
13061;SDS011;6597;52.218;9.882;2022-08-11T10:55:51;2.95;;;2.30;;
13061;SDS011;6597;52.218;9.882;2022-08-11T10:58:37;6.05;;;2.78;;
13061;SDS011;6597;52.218;9.882;2022-08-11T11:01:10;3.67;;;1.90;;
13061;SDS011;6597;52.218;9.882;2022-08-11T11:03:38;3.20;;;2.83;;
13061;SDS011;6597;52.218;9.882;2022-08-11T11:06:07;2.50;;;2.30;;
13061;SDS011;6597;52.218;9.882;2022-08-11T11:08:50;3.35;;;3.05;;
13061;SDS011;6597;52.218;9.882;2022-08-11T11:11:24;5.63;;;2.10;;
13061;SDS011;6597;52.218;9.882;2022-08-11T11:14:16;2.70;;;2.50;;
13061;SDS011;6597;52.218;9.882;2022-08-11T11:17:02;7.18;;;2.33;;
13061;SDS011;6597;52.218;9.882;2022-08-11T11:19:49;3.35;;;2.50;;
13061;SDS011;6597;52.218;9.882;2022-08-11T11:22:21;3.10;;;2.88;;
13061;SDS011;6597;52.218;9.882;2022-08-11T11:25:12;4.75;;;2.90;;
13061;SDS011;6597;52.218;9.882;2022-08-11T11:30:55;2.22;;;2.00;;
13061;SDS011;6597;52.218;9.882;2022-08-11T11:33:39;3.75;;;2.03;;
13061;SDS011;6597;52.218;9.882;2022-08-11T11:36:20;4.40;;;2.30;;
13061;SDS011;6597;52.218;9.882;2022-08-11T11:38:53;2.17;;;1.90;;
13061;SDS011;6597;52.218;9.882;2022-08-11T11:41:21;2.50;;;2.20;;
13061;SDS011;6597;52.218;9.882;2022-08-11T11:43:53;5.60;;;2.70;;
13061;SDS011;6597;52.218;9.882;2022-08-11T11:46:22;4.68;;;2.45;;
13061;SDS011;6597;52.218;9.882;2022-08-11T11:48:51;2.75;;;2.53;;
13061;SDS011;6597;52.218;9.882;2022-08-11T11:51:19;2.30;;;2.10;;
13061;SDS011;6597;52.218;9.882;2022-08-11T11:53:46;2.38;;;2.17;;
13061;SDS011;6597;52.218;9.882;2022-08-11T11:56:14;4.80;;;2.45;;
13061;SDS011;6597;52.218;9.882;2022-08-11T11:58:41;2.33;;;1.98;;
13061;SDS011;6597;52.218;9.882;2022-08-11T12:01:27;4.38;;;2.63;;
13061;SDS011;6597;52.218;9.882;2022-08-11T12:03:55;2.45;;;2.15;;
13061;SDS011;6597;52.218;9.882;2022-08-11T12:06:23;3.63;;;2.08;;
13061;SDS011;6597;52.218;9.882;2022-08-11T12:08:52;8.23;;;2.00;;
13061;SDS011;6597;52.218;9.882;2022-08-11T12:11:21;3.17;;;2.50;;
13061;SDS011;6597;52.218;9.882;2022-08-11T12:14:08;6.63;;;2.55;;
13061;SDS011;6597;52.218;9.882;2022-08-11T12:16:37;3.70;;;2.80;;
13061;SDS011;6597;52.218;9.882;2022-08-11T12:19:06;6.57;;;2.80;;
13061;SDS011;6597;52.218;9.882;2022-08-11T12:21:35;2.60;;;2.40;;
13061;SDS011;6597;52.218;9.882;2022-08-11T12:24:23;4.65;;;2.65;;
13061;SDS011;6597;52.218;9.882;2022-08-11T12:27:08;2.03;;;1.85;;
13061;SDS011;6597;52.218;9.882;2022-08-11T12:29:54;2.90;;;1.98;;
13061;SDS011;6597;52.218;9.882;2022-08-11T12:32:26;4.85;;;2.42;;
13061;SDS011;6597;52.218;9.882;2022-08-11T12:34:55;3.10;;;2.80;;
13061;SDS011;6597;52.218;9.882;2022-08-11T12:37:23;4.05;;;2.20;;
13061;SDS011;6597;52.218;9.882;2022-08-11T12:39:56;2.55;;;2.00;;
13061;SDS011;6597;52.218;9.882;2022-08-11T12:42:43;4.38;;;3.00;;
13061;SDS011;6597;52.218;9.882;2022-08-11T12:45:28;4.82;;;2.50;;
13061;SDS011;6597;52.218;9.882;2022-08-11T12:48:04;3.00;;;1.83;;
13061;SDS011;6597;52.218;9.882;2022-08-11T12:50:53;3.17;;;2.75;;
13061;SDS011;6597;52.218;9.882;2022-08-11T12:53:42;7.50;;;2.50;;
13061;SDS011;6597;52.218;9.882;2022-08-11T12:56:17;2.75;;;2.50;;
13061;SDS011;6597;52.218;9.882;2022-08-11T12:59:02;3.42;;;2.13;;
13061;SDS011;6597;52.218;9.882;2022-08-11T13:01:48;3.42;;;2.25;;
13061;SDS011;6597;52.218;9.882;2022-08-11T13:04:35;3.35;;;2.20;;
13061;SDS011;6597;52.218;9.882;2022-08-11T13:07:20;5.10;;;2.85;;
13061;SDS011;6597;52.218;9.882;2022-08-11T13:09:48;2.97;;;2.70;;
13061;SDS011;6597;52.218;9.882;2022-08-11T13:12:16;3.25;;;2.33;;
13061;SDS011;6597;52.218;9.882;2022-08-11T13:15:01;2.97;;;2.28;;
13061;SDS011;6597;52.218;9.882;2022-08-11T13:17:28;2.95;;;2.75;;
13061;SDS011;6597;52.218;9.882;2022-08-11T13:19:57;4.60;;;2.65;;
13061;SDS011;6597;52.218;9.882;2022-08-11T13:22:27;3.75;;;2.08;;
13061;SDS011;6597;52.218;9.882;2022-08-11T13:24:54;2.80;;;2.35;;
13061;SDS011;6597;52.218;9.882;2022-08-11T13:27:22;2.20;;;2.00;;
13061;SDS011;6597;52.218;9.882;2022-08-11T13:29:50;9.23;;;2.42;;
13061;SDS011;6597;52.218;9.882;2022-08-11T13:32:39;5.80;;;2.38;;
13061;SDS011;6597;52.218;9.882;2022-08-11T13:35:09;3.38;;;2.92;;
13061;SDS011;6597;52.218;9.882;2022-08-11T13:37:40;2.97;;;2.67;;
13061;SDS011;6597;52.218;9.882;2022-08-11T13:40:10;2.58;;;1.95;;
13061;SDS011;6597;52.218;9.882;2022-08-11T13:42:37;3.38;;;2.13;;
13061;SDS011;6597;52.218;9.882;2022-08-11T13:45:06;2.38;;;2.15;;
13061;SDS011;6597;52.218;9.882;2022-08-11T13:47:34;4.30;;;2.47;;
13061;SDS011;6597;52.218;9.882;2022-08-11T13:50:02;4.72;;;2.60;;
13061;SDS011;6597;52.218;9.882;2022-08-11T13:52:31;4.28;;;2.15;;
13061;SDS011;6597;52.218;9.882;2022-08-11T13:54:59;2.67;;;2.45;;
13061;SDS011;6597;52.218;9.882;2022-08-11T13:57:29;6.47;;;2.78;;
13061;SDS011;6597;52.218;9.882;2022-08-11T13:59:57;3.78;;;3.00;;
13061;SDS011;6597;52.218;9.882;2022-08-11T14:02:37;3.95;;;2.60;;
13061;SDS011;6597;52.218;9.882;2022-08-11T14:05:09;3.65;;;2.97;;
13061;SDS011;6597;52.218;9.882;2022-08-11T14:07:43;2.70;;;2.15;;
13061;SDS011;6597;52.218;9.882;2022-08-11T14:10:15;4.75;;;3.00;;
13061;SDS011;6597;52.218;9.882;2022-08-11T14:12:45;3.38;;;2.38;;
13061;SDS011;6597;52.218;9.882;2022-08-11T14:15:37;2.30;;;2.10;;
13061;SDS011;6597;52.218;9.882;2022-08-11T14:18:08;3.13;;;2.83;;
13061;SDS011;6597;52.218;9.882;2022-08-11T14:20:40;3.00;;;2.67;;
13061;SDS011;6597;52.218;9.882;2022-08-11T14:23:27;3.03;;;2.72;;
13061;SDS011;6597;52.218;9.882;2022-08-11T14:25:58;7.85;;;2.90;;
13061;SDS011;6597;52.218;9.882;2022-08-11T14:28:43;2.38;;;2.17;;
13061;SDS011;6597;52.218;9.882;2022-08-11T14:31:12;3.47;;;3.17;;
13061;SDS011;6597;52.218;9.882;2022-08-11T14:33:40;5.18;;;3.15;;
13061;SDS011;6597;52.218;9.882;2022-08-11T14:36:08;2.92;;;2.60;;
13061;SDS011;6597;52.218;9.882;2022-08-11T14:38:38;2.35;;;2.08;;
13061;SDS011;6597;52.218;9.882;2022-08-11T14:41:07;2.80;;;2.38;;
13061;SDS011;6597;52.218;9.882;2022-08-11T14:43:52;2.50;;;2.30;;
13061;SDS011;6597;52.218;9.882;2022-08-11T14:46:39;5.25;;;2.67;;
13061;SDS011;6597;52.218;9.882;2022-08-11T14:49:25;2.83;;;2.00;;
13061;SDS011;6597;52.218;9.882;2022-08-11T14:51:53;4.60;;;2.45;;
13061;SDS011;6597;52.218;9.882;2022-08-11T14:54:24;3.47;;;2.53;;
13061;SDS011;6597;52.218;9.882;2022-08-11T14:57:11;4.40;;;2.10;;
13061;SDS011;6597;52.218;9.882;2022-08-11T14:59:38;3.60;;;1.95;;
13061;SDS011;6597;52.218;9.882;2022-08-11T15:02:07;3.05;;;2.55;;
13061;SDS011;6597;52.218;9.882;2022-08-11T15:04:53;3.72;;;2.33;;
13061;SDS011;6597;52.218;9.882;2022-08-11T15:07:22;2.42;;;2.22;;
13061;SDS011;6597;52.218;9.882;2022-08-11T15:09:55;2.75;;;1.95;;
13061;SDS011;6597;52.218;9.882;2022-08-11T15:12:22;3.05;;;2.63;;
13061;SDS011;6597;52.218;9.882;2022-08-11T15:14:49;3.05;;;2.72;;
13061;SDS011;6597;52.218;9.882;2022-08-11T15:17:34;4.60;;;2.90;;
13061;SDS011;6597;52.218;9.882;2022-08-11T15:20:03;8.27;;;2.88;;
13061;SDS011;6597;52.218;9.882;2022-08-11T15:22:51;2.88;;;2.35;;
13061;SDS011;6597;52.218;9.882;2022-08-11T15:25:37;2.15;;;1.85;;
13061;SDS011;6597;52.218;9.882;2022-08-11T15:28:06;2.40;;;2.20;;
13061;SDS011;6597;52.218;9.882;2022-08-11T15:30:53;2.30;;;2.08;;
13061;SDS011;6597;52.218;9.882;2022-08-11T15:33:39;2.60;;;2.40;;
13061;SDS011;6597;52.218;9.882;2022-08-11T15:36:26;2.20;;;2.00;;
13061;SDS011;6597;52.218;9.882;2022-08-11T15:39:15;2.40;;;2.17;;
13061;SDS011;6597;52.218;9.882;2022-08-11T15:41:47;4.15;;;2.08;;
13061;SDS011;6597;52.218;9.882;2022-08-11T15:44:36;4.72;;;1.98;;
13061;SDS011;6597;52.218;9.882;2022-08-11T15:47:34;3.97;;;2.20;;
13061;SDS011;6597;52.218;9.882;2022-08-11T15:50:04;5.70;;;2.78;;
13061;SDS011;6597;52.218;9.882;2022-08-11T15:52:33;2.53;;;2.08;;
13061;SDS011;6597;52.218;9.882;2022-08-11T15:55:08;4.47;;;2.05;;
13061;SDS011;6597;52.218;9.882;2022-08-11T15:57:37;4.15;;;2.35;;
13061;SDS011;6597;52.218;9.882;2022-08-11T16:00:20;4.57;;;2.42;;
13061;SDS011;6597;52.218;9.882;2022-08-11T16:03:05;2.70;;;2.50;;
13061;SDS011;6597;52.218;9.882;2022-08-11T16:05:51;6.22;;;2.20;;
13061;SDS011;6597;52.218;9.882;2022-08-11T16:08:19;5.53;;;2.05;;
13061;SDS011;6597;52.218;9.882;2022-08-11T16:10:48;2.70;;;1.67;;
13061;SDS011;6597;52.218;9.882;2022-08-11T16:13:19;3.72;;;2.13;;
13061;SDS011;6597;52.218;9.882;2022-08-11T16:16:05;5.25;;;2.25;;
13061;SDS011;6597;52.218;9.882;2022-08-11T16:18:43;4.20;;;1.85;;
13061;SDS011;6597;52.218;9.882;2022-08-11T16:21:14;2.13;;;1.95;;
13061;SDS011;6597;52.218;9.882;2022-08-11T16:23:45;3.38;;;2.20;;
13061;SDS011;6597;52.218;9.882;2022-08-11T16:26:14;6.50;;;2.10;;
13061;SDS011;6597;52.218;9.882;2022-08-11T16:28:48;2.47;;;2.10;;
13061;SDS011;6597;52.218;9.882;2022-08-11T16:31:17;5.65;;;2.08;;
13061;SDS011;6597;52.218;9.882;2022-08-11T16:33:46;7.05;;;2.20;;
13061;SDS011;6597;52.218;9.882;2022-08-11T16:36:14;3.08;;;1.80;;
13061;SDS011;6597;52.218;9.882;2022-08-11T16:38:59;4.00;;;2.40;;
13061;SDS011;6597;52.218;9.882;2022-08-11T16:41:28;2.53;;;2.03;;
13061;SDS011;6597;52.218;9.882;2022-08-11T16:44:15;4.97;;;1.95;;
13061;SDS011;6597;52.218;9.882;2022-08-11T16:47:01;2.70;;;2.13;;
13061;SDS011;6597;52.218;9.882;2022-08-11T16:49:30;2.55;;;1.80;;
13061;SDS011;6597;52.218;9.882;2022-08-11T16:51:58;2.33;;;2.10;;
13061;SDS011;6597;52.218;9.882;2022-08-11T16:54:28;2.80;;;2.17;;
13061;SDS011;6597;52.218;9.882;2022-08-11T16:56:55;2.83;;;1.80;;
13061;SDS011;6597;52.218;9.882;2022-08-11T16:59:46;2.10;;;1.90;;
13061;SDS011;6597;52.218;9.882;2022-08-11T17:02:15;2.58;;;2.38;;
13061;SDS011;6597;52.218;9.882;2022-08-11T17:05:06;3.13;;;2.13;;
13061;SDS011;6597;52.218;9.882;2022-08-11T17:07:54;3.45;;;2.38;;
13061;SDS011;6597;52.218;9.882;2022-08-11T17:10:43;4.95;;;2.10;;
13061;SDS011;6597;52.218;9.882;2022-08-11T17:13:32;2.70;;;1.80;;